createdAt,value
2017-08-28T00:02:15.848Z,59.00
2017-08-28T00:04:43.360Z,59.00
2017-08-28T00:07:11.405Z,59.00
2017-08-28T00:09:39.363Z,58.80
2017-08-28T00:12:06.967Z,58.90
2017-08-28T00:14:34.590Z,59.20
2017-08-28T00:17:02.798Z,59.20
2017-08-28T00:19:30.852Z,59.10
2017-08-28T00:21:59.090Z,59.10
2017-08-28T00:24:27.042Z,59.10
2017-08-28T00:26:55.183Z,59.10
2017-08-28T00:29:23.913Z,59.90
2017-08-28T00:31:51.944Z,59.50
2017-08-28T00:34:19.569Z,59.60
2017-08-28T00:36:47.774Z,59.60
2017-08-28T00:39:15.292Z,59.60
2017-08-28T00:41:42.792Z,59.50
2017-08-28T00:44:11.849Z,59.50
2017-08-28T00:46:39.440Z,59.50
2017-08-28T00:49:07.133Z,59.60
2017-08-28T00:51:35.894Z,59.70
2017-08-28T00:54:03.368Z,59.60
2017-08-28T00:56:31.115Z,59.60
2017-08-28T00:58:59.046Z,59.70
2017-08-28T01:01:26.480Z,59.70
2017-08-28T01:03:54.051Z,59.70
2017-08-28T01:06:21.501Z,59.60
2017-08-28T01:08:49.137Z,60.30
2017-08-28T01:11:16.586Z,59.70
2017-08-28T01:13:44.046Z,59.60
2017-08-28T01:16:12.176Z,59.60
2017-08-28T01:18:40.743Z,59.50
2017-08-28T01:21:08.234Z,59.50
2017-08-28T01:23:37.119Z,59.50
2017-08-28T01:26:05.240Z,59.50
2017-08-28T01:28:33.066Z,59.60
2017-08-28T01:31:00.880Z,59.60
2017-08-28T01:33:28.361Z,59.50
2017-08-28T01:35:55.899Z,59.50
2017-08-28T01:38:23.856Z,59.60
2017-08-28T01:40:51.698Z,59.50
2017-08-28T01:43:19.545Z,59.50
2017-08-28T01:45:47.298Z,59.40
2017-08-28T01:48:14.733Z,59.50
2017-08-28T01:50:42.689Z,59.40
2017-08-28T01:53:10.182Z,59.30
2017-08-28T01:55:37.637Z,59.50
2017-08-28T01:58:05.541Z,59.60
2017-08-28T02:00:33.849Z,59.70
2017-08-28T02:03:01.541Z,59.70
2017-08-28T02:05:29.077Z,59.80
2017-08-28T02:07:56.865Z,59.90
2017-08-28T02:10:24.349Z,59.80
2017-08-28T02:12:52.849Z,59.70
2017-08-28T02:15:20.325Z,59.70
2017-08-28T02:17:48.325Z,59.70
2017-08-28T02:20:15.819Z,59.60
2017-08-28T02:22:43.614Z,59.70
2017-08-28T02:25:11.093Z,59.70
2017-08-28T02:27:38.979Z,59.80
2017-08-28T02:30:06.790Z,59.90
2017-08-28T02:32:34.224Z,59.90
2017-08-28T02:35:02.305Z,59.80
2017-08-28T02:37:30.155Z,59.70
2017-08-28T02:39:57.599Z,59.70
2017-08-28T02:42:25.141Z,59.80
2017-08-28T02:44:52.582Z,59.90
2017-08-28T02:47:20.169Z,60.10
2017-08-28T02:49:47.606Z,60.00
2017-08-28T02:52:15.689Z,59.80
2017-08-28T02:54:43.133Z,60.00
2017-08-28T02:57:11.075Z,60.60
2017-08-28T02:59:38.550Z,60.00
2017-08-28T03:02:06.088Z,60.20
2017-08-28T03:04:33.561Z,60.20
2017-08-28T03:07:01.616Z,60.30
2017-08-28T03:09:29.094Z,60.30
2017-08-28T03:11:57.061Z,60.20
2017-08-28T03:14:24.818Z,60.30
2017-08-28T03:16:53.587Z,60.30
2017-08-28T03:19:21.613Z,60.30
2017-08-28T03:21:50.496Z,60.40
2017-08-28T03:24:17.957Z,60.50
2017-08-28T03:26:47.520Z,60.60
2017-08-28T03:29:16.501Z,60.60
2017-08-28T03:31:44.010Z,60.50
2017-08-28T03:34:12.097Z,60.50
2017-08-28T03:36:39.640Z,60.60
2017-08-28T03:39:07.508Z,60.60
2017-08-28T03:41:34.975Z,60.60
2017-08-28T03:44:02.583Z,60.40
2017-08-28T03:46:30.161Z,60.50
2017-08-28T03:48:57.628Z,60.90
2017-08-28T03:51:25.612Z,60.60
2017-08-28T03:53:53.783Z,60.60
2017-08-28T03:56:21.219Z,60.80
2017-08-28T03:58:49.173Z,60.70
2017-08-28T04:01:18.015Z,60.60
2017-08-28T04:03:45.446Z,60.70
2017-08-28T04:06:12.890Z,60.50
2017-08-28T04:08:40.661Z,60.50
2017-08-28T04:11:08.590Z,60.60
2017-08-28T04:13:36.686Z,60.70
2017-08-28T04:16:04.433Z,60.60
2017-08-28T04:18:32.483Z,60.40
2017-08-28T04:20:59.941Z,60.40
2017-08-28T04:23:27.973Z,60.50
2017-08-28T04:25:55.611Z,60.40
2017-08-28T04:28:23.677Z,60.70
2017-08-28T04:30:51.144Z,60.60
2017-08-28T04:33:19.348Z,60.40
2017-08-28T04:35:46.838Z,60.50
2017-08-28T04:38:14.285Z,60.50
2017-08-28T04:40:43.000Z,60.70
2017-08-28T04:43:10.846Z,60.60
2017-08-28T04:45:38.268Z,60.80
2017-08-28T04:48:05.821Z,60.80
2017-08-28T04:50:34.434Z,61.00
2017-08-28T04:53:01.938Z,61.10
2017-08-28T04:55:31.062Z,61.10
2017-08-28T04:57:58.898Z,61.20
2017-08-28T05:00:26.333Z,61.50
2017-08-28T05:02:53.774Z,61.20
2017-08-28T05:05:21.255Z,61.20
2017-08-28T05:07:49.785Z,61.40
2017-08-28T05:10:17.241Z,61.40
2017-08-28T05:12:44.774Z,61.30
2017-08-28T05:15:12.283Z,61.40
2017-08-28T05:17:40.689Z,61.40
2017-08-28T05:20:08.133Z,61.40
2017-08-28T05:22:36.921Z,62.20
2017-08-28T05:25:05.138Z,61.70
2017-08-28T05:27:33.201Z,61.50
2017-08-28T05:30:00.637Z,62.40
2017-08-28T05:32:28.081Z,61.90
2017-08-28T05:34:55.635Z,61.80
2017-08-28T05:37:23.098Z,62.00
2017-08-28T05:39:50.950Z,62.30
2017-08-28T05:42:19.209Z,62.60
2017-08-28T05:44:47.947Z,62.70
2017-08-28T05:47:15.408Z,62.70
2017-08-28T05:49:42.846Z,62.80
2017-08-28T05:52:10.305Z,62.40
2017-08-28T05:54:37.762Z,63.00
2017-08-28T05:57:05.675Z,63.10
2017-08-28T05:59:34.023Z,63.10
2017-08-28T06:02:01.713Z,63.10
2017-08-28T06:04:29.941Z,63.20
2017-08-28T06:06:57.692Z,63.20
2017-08-28T06:09:25.581Z,63.50
2017-08-28T06:11:53.023Z,63.50
2017-08-28T06:14:21.329Z,63.40
2017-08-28T06:16:49.186Z,63.30
2017-08-28T06:19:17.297Z,63.50
2017-08-28T06:21:45.808Z,63.40
2017-08-28T06:24:13.549Z,63.60
2017-08-28T06:26:41.022Z,63.60
2017-08-28T06:29:09.541Z,63.60
2017-08-28T06:31:37.001Z,63.40
2017-08-28T06:34:04.924Z,63.40
2017-08-28T06:36:32.378Z,63.20
2017-08-28T06:39:01.479Z,62.90
2017-08-28T06:41:29.257Z,62.70
2017-08-28T06:43:56.734Z,62.90
2017-08-28T06:46:24.588Z,62.80
2017-08-28T06:48:53.313Z,62.60
2017-08-28T06:51:20.797Z,62.60
2017-08-28T06:53:48.267Z,62.30
2017-08-28T06:56:15.805Z,61.90
2017-08-28T06:58:43.633Z,62.00
2017-08-28T07:01:11.075Z,61.70
2017-08-28T07:03:38.761Z,61.50
2017-08-28T07:06:06.913Z,61.30
2017-08-28T07:08:34.855Z,61.30
2017-08-28T07:11:02.304Z,61.10
2017-08-28T07:13:29.753Z,61.00
2017-08-28T07:15:57.366Z,60.70
2017-08-28T07:18:25.647Z,60.70
2017-08-28T07:20:53.271Z,61.20
2017-08-28T07:23:21.990Z,60.20
2017-08-28T07:25:49.915Z,60.40
2017-08-28T07:28:18.681Z,60.20
2017-08-28T07:30:46.138Z,59.70
2017-08-28T07:33:13.591Z,60.10
2017-08-28T07:35:41.721Z,60.10
2017-08-28T07:38:09.684Z,59.30
2017-08-28T07:40:37.162Z,59.20
2017-08-28T07:43:04.645Z,59.20
2017-08-28T07:45:32.118Z,59.00
2017-08-28T07:48:00.889Z,58.70
2017-08-28T07:50:28.527Z,58.70
2017-08-28T07:52:55.975Z,58.40
2017-08-28T07:55:23.415Z,59.00
2017-08-28T07:57:52.015Z,58.00
2017-08-28T08:00:19.503Z,58.00
2017-08-28T08:02:47.605Z,57.50
2017-08-28T08:05:15.113Z,58.50
2017-08-28T08:07:43.538Z,58.10
2017-08-28T08:10:11.030Z,58.30
2017-08-28T08:12:38.500Z,57.70
2017-08-28T08:15:06.251Z,58.40
2017-08-28T08:17:34.631Z,58.00
2017-08-28T08:20:02.378Z,57.60
2017-08-28T08:22:30.301Z,58.40
2017-08-28T08:24:57.858Z,57.70
2017-08-28T08:27:25.686Z,57.80
2017-08-28T08:29:54.541Z,57.90
2017-08-28T08:32:22.793Z,58.20
2017-08-28T08:34:50.640Z,57.90
2017-08-28T08:37:18.217Z,57.50
2017-08-28T08:39:45.690Z,57.20
2017-08-28T08:42:13.138Z,56.70
2017-08-28T08:44:40.597Z,57.00
2017-08-28T08:47:08.367Z,57.10
2017-08-28T08:49:35.857Z,56.70
2017-08-28T08:52:03.299Z,56.60
2017-08-28T08:54:31.261Z,56.10
2017-08-28T08:56:59.133Z,55.20
2017-08-28T08:59:26.590Z,55.50
2017-08-28T09:01:54.044Z,56.00
2017-08-28T09:04:21.535Z,54.40
2017-08-28T09:06:50.039Z,55.10
2017-08-28T09:09:17.532Z,55.00
2017-08-28T09:11:46.244Z,54.30
2017-08-28T09:14:14.132Z,55.30
2017-08-28T09:16:41.809Z,54.10
2017-08-28T09:19:10.909Z,54.10
2017-08-28T09:21:38.978Z,53.90
2017-08-28T09:24:06.858Z,53.70
2017-08-28T09:26:34.297Z,53.90
2017-08-28T09:29:02.501Z,53.60
2017-08-28T09:31:29.938Z,53.20
2017-08-28T09:33:57.745Z,53.20
2017-08-28T09:36:26.301Z,52.90
2017-08-28T09:38:54.520Z,52.00
2017-08-28T09:41:21.985Z,52.00
2017-08-28T09:43:49.730Z,51.10
2017-08-28T09:46:17.294Z,52.30
2017-08-28T09:48:44.732Z,53.10
2017-08-28T09:51:12.182Z,52.40
2017-08-28T09:53:39.648Z,51.30
2017-08-28T09:56:07.089Z,50.50
2017-08-28T09:58:34.988Z,49.50
2017-08-28T10:01:02.481Z,47.60
2017-08-28T10:03:30.109Z,47.80
2017-08-28T10:05:57.766Z,48.60
2017-08-28T10:08:25.813Z,48.70
2017-08-28T10:10:53.330Z,45.70
2017-08-28T10:13:21.207Z,46.90
2017-08-28T10:15:49.750Z,47.80
2017-08-28T10:18:19.251Z,47.70
2017-08-28T10:20:48.413Z,47.30
2017-08-28T10:23:16.381Z,47.30
2017-08-28T10:25:44.733Z,45.50
2017-08-28T10:28:12.210Z,45.50
2017-08-28T10:30:40.847Z,45.70
2017-08-28T10:33:08.598Z,45.70
2017-08-28T10:35:37.255Z,46.10
2017-08-28T10:38:05.579Z,46.00
2017-08-28T10:40:33.096Z,45.10
2017-08-28T10:43:00.531Z,43.30
2017-08-28T10:45:27.998Z,44.10
2017-08-28T10:47:55.456Z,44.10
2017-08-28T10:50:22.930Z,43.90
2017-08-28T10:52:50.611Z,43.30
2017-08-28T10:55:18.277Z,43.50
2017-08-28T10:57:46.090Z,42.70
2017-08-28T11:00:13.733Z,43.70
2017-08-28T11:02:41.935Z,42.40
2017-08-28T11:05:09.410Z,42.30
2017-08-28T11:07:37.453Z,41.90
2017-08-28T11:10:04.909Z,41.60
2017-08-28T11:12:33.383Z,39.30
2017-08-28T11:15:01.119Z,37.50
2017-08-28T11:17:29.266Z,39.00
2017-08-28T11:19:56.728Z,38.90
2017-08-28T11:22:24.662Z,38.30
2017-08-28T11:24:52.434Z,39.10
2017-08-28T11:27:19.897Z,39.60
2017-08-28T11:29:47.977Z,39.60
2017-08-28T11:32:15.956Z,40.00
2017-08-28T11:34:43.973Z,37.70
2017-08-28T11:37:11.413Z,37.70
2017-08-28T11:39:38.870Z,37.50
2017-08-28T11:42:07.669Z,36.00
2017-08-28T11:44:35.131Z,35.80
2017-08-28T11:47:02.583Z,36.70
2017-08-28T11:49:30.060Z,36.20
2017-08-28T11:51:57.542Z,36.40
2017-08-28T11:54:24.994Z,37.60
2017-08-28T11:56:52.763Z,37.80
2017-08-28T11:59:20.586Z,37.80
2017-08-28T12:01:49.026Z,37.30
2017-08-28T12:04:16.465Z,36.90
2017-08-28T12:06:44.530Z,37.30
2017-08-28T12:09:11.999Z,33.30
2017-08-28T12:11:40.759Z,34.50
2017-08-28T12:14:08.404Z,35.70
2017-08-28T12:16:35.884Z,35.30
2017-08-28T12:19:03.893Z,34.00
2017-08-28T12:21:31.829Z,35.10
2017-08-28T12:23:59.895Z,35.00
2017-08-28T12:26:27.433Z,32.70
2017-08-28T12:28:54.929Z,33.20
2017-08-28T12:31:22.733Z,34.20
2017-08-28T12:33:50.174Z,35.20
2017-08-28T12:36:17.636Z,35.30
2017-08-28T12:38:45.118Z,31.90
2017-08-28T12:41:12.790Z,32.80
2017-08-28T12:43:40.852Z,34.30
2017-08-28T12:46:08.317Z,34.70
2017-08-28T12:48:35.765Z,34.30
2017-08-28T12:51:03.277Z,33.50
2017-08-28T12:53:31.497Z,34.30
2017-08-28T12:55:58.963Z,34.40
2017-08-28T12:58:26.938Z,32.10
2017-08-28T13:00:54.622Z,31.30
2017-08-28T13:03:22.833Z,32.30
2017-08-28T13:05:50.439Z,29.70
2017-08-28T13:08:18.408Z,30.90
2017-08-28T13:10:46.289Z,32.00
2017-08-28T13:13:13.733Z,32.40
2017-08-28T13:15:41.212Z,33.90
2017-08-28T13:18:09.218Z,33.80
2017-08-28T13:20:36.965Z,33.10
2017-08-28T13:23:04.674Z,33.10
2017-08-28T13:25:32.114Z,32.60
2017-08-28T13:27:59.658Z,32.30
2017-08-28T13:30:27.446Z,32.60
2017-08-28T13:32:55.011Z,32.30
2017-08-28T13:35:22.457Z,32.30
2017-08-28T13:37:50.696Z,32.50
2017-08-28T13:40:18.157Z,32.40
2017-08-28T13:42:46.833Z,29.50
2017-08-28T13:45:14.754Z,29.50
2017-08-28T13:47:42.193Z,29.50
2017-08-28T13:50:09.669Z,30.70
2017-08-28T13:52:37.185Z,29.60
2017-08-28T13:55:05.541Z,28.50
2017-08-28T13:57:34.174Z,29.90
2017-08-28T14:00:01.613Z,29.40
2017-08-28T14:02:29.388Z,30.40
2017-08-28T14:04:56.898Z,29.90
2017-08-28T14:07:24.800Z,28.80
2017-08-28T14:09:53.130Z,29.00
2017-08-28T14:12:20.580Z,30.30
2017-08-28T14:14:48.017Z,30.60
2017-08-28T14:17:15.492Z,31.00
2017-08-28T14:19:43.701Z,31.40
2017-08-28T14:22:11.682Z,30.90
2017-08-28T14:24:39.132Z,30.70
2017-08-28T14:27:06.665Z,30.00
2017-08-28T14:29:34.184Z,29.80
2017-08-28T14:32:02.089Z,30.60
2017-08-28T14:34:30.321Z,30.50
2017-08-28T14:36:57.793Z,30.40
2017-08-28T14:39:26.328Z,29.20
2017-08-28T14:41:53.791Z,29.00
2017-08-28T14:44:22.145Z,29.40
2017-08-28T14:46:49.645Z,29.30
2017-08-28T14:49:17.568Z,29.70
2017-08-28T14:51:45.037Z,28.10
2017-08-28T14:54:12.494Z,29.20
2017-08-28T14:56:41.221Z,29.70
2017-08-28T14:59:08.671Z,30.20
2017-08-28T15:01:36.572Z,29.90
2017-08-28T15:04:04.014Z,30.00
2017-08-28T15:06:31.483Z,28.20
2017-08-28T15:08:59.483Z,30.00
2017-08-28T15:11:27.255Z,30.80
2017-08-28T15:13:54.725Z,30.50
2017-08-28T15:16:22.162Z,30.80
2017-08-28T15:18:50.740Z,30.00
2017-08-28T15:21:18.217Z,29.90
2017-08-28T15:23:46.725Z,29.80
2017-08-28T15:26:14.172Z,30.10
2017-08-28T15:28:41.620Z,31.10
2017-08-28T15:31:09.956Z,30.60
2017-08-28T15:33:37.669Z,30.60
2017-08-28T15:36:05.337Z,30.20
2017-08-28T15:38:34.132Z,31.10
2017-08-28T15:41:01.613Z,30.30
2017-08-28T15:43:29.622Z,30.30
2017-08-28T15:45:57.070Z,30.80
2017-08-28T15:48:24.534Z,31.50
2017-08-28T15:50:52.216Z,31.40
2017-08-28T15:53:19.664Z,31.60
2017-08-28T15:55:47.112Z,32.10
2017-08-28T15:58:14.988Z,31.60
2017-08-28T16:00:42.419Z,32.60
2017-08-28T16:03:10.065Z,32.40
2017-08-28T16:05:37.522Z,32.80
2017-08-28T16:08:06.117Z,33.00
2017-08-28T16:10:33.584Z,32.90
2017-08-28T16:13:01.093Z,33.40
2017-08-28T16:15:28.672Z,32.70
2017-08-28T16:17:56.558Z,32.70
2017-08-28T16:20:24.038Z,32.80
2017-08-28T16:22:51.856Z,32.80
2017-08-28T16:25:19.362Z,33.00
2017-08-28T16:27:47.136Z,33.70
2017-08-28T16:30:14.594Z,33.60
2017-08-28T16:32:42.459Z,33.60
2017-08-28T16:35:09.904Z,33.60
2017-08-28T16:37:37.716Z,33.60
2017-08-28T16:40:05.986Z,33.80
2017-08-28T16:42:33.727Z,34.00
2017-08-28T16:45:01.437Z,34.10
2017-08-28T16:47:28.917Z,34.10
2017-08-28T16:49:56.357Z,34.50
2017-08-28T16:52:23.850Z,34.60
2017-08-28T16:54:51.962Z,35.20
2017-08-28T16:57:20.010Z,35.50
2017-08-28T16:59:47.451Z,35.60
2017-08-28T17:02:14.922Z,36.20
2017-08-28T17:04:42.373Z,36.10
2017-08-28T17:07:10.223Z,36.70
2017-08-28T17:09:45.577Z,36.70
2017-08-28T17:12:13.633Z,37.00
2017-08-28T17:14:41.111Z,37.40
2017-08-28T17:17:08.548Z,37.80
2017-08-28T17:19:36.467Z,37.90
2017-08-28T17:22:04.297Z,38.00
2017-08-28T17:24:31.770Z,38.40
2017-08-28T17:26:59.222Z,38.80
2017-08-28T17:29:28.482Z,39.80
2017-08-28T17:31:56.569Z,40.40
2017-08-28T17:34:24.098Z,40.80
2017-08-28T17:36:51.965Z,41.60
2017-08-28T17:39:20.139Z,41.80
2017-08-28T17:41:48.137Z,41.80
2017-08-28T17:44:15.862Z,42.20
2017-08-28T17:46:43.308Z,42.60
2017-08-28T17:49:10.782Z,43.00
2017-08-28T17:51:38.413Z,43.40
2017-08-28T17:54:06.406Z,43.70
2017-08-28T17:56:33.909Z,43.90
2017-08-28T17:59:02.251Z,43.90
2017-08-28T18:01:30.125Z,44.00
2017-08-28T18:03:57.626Z,44.10
2017-08-28T18:06:25.703Z,44.60
2017-08-28T18:08:54.836Z,44.30
2017-08-28T18:11:22.276Z,45.00
2017-08-28T18:13:50.039Z,45.20
2017-08-28T18:16:18.074Z,45.00
2017-08-28T18:18:45.997Z,45.20
2017-08-28T18:21:13.898Z,45.70
2017-08-28T18:23:42.718Z,45.90
2017-08-28T18:26:10.180Z,45.60
2017-08-28T18:28:37.874Z,45.70
2017-08-28T18:31:05.345Z,45.80
2017-08-28T18:33:33.626Z,45.90
2017-08-28T18:36:01.086Z,46.20
2017-08-28T18:38:28.865Z,46.20
2017-08-28T18:40:57.950Z,46.20
2017-08-28T18:43:25.962Z,46.10
2017-08-28T18:45:55.254Z,46.50
2017-08-28T18:48:22.757Z,46.70
2017-08-28T18:50:51.376Z,46.60
2017-08-28T18:53:18.856Z,46.70
2017-08-28T18:55:46.410Z,46.70
2017-08-28T18:58:15.722Z,47.00
2017-08-28T19:00:43.161Z,47.00
2017-08-28T19:03:10.613Z,47.20
2017-08-28T19:05:38.079Z,47.50
2017-08-28T19:08:06.120Z,47.80
2017-08-28T19:10:33.576Z,48.00
2017-08-28T19:13:01.792Z,47.90
2017-08-28T19:15:29.695Z,47.80
2017-08-28T19:17:57.557Z,47.90
2017-08-28T19:20:25.585Z,48.20
2017-08-28T19:22:55.000Z,48.70
2017-08-28T19:25:22.491Z,48.80
2017-08-28T19:27:49.933Z,49.10
2017-08-28T19:30:17.439Z,49.40
2017-08-28T19:32:45.543Z,49.00
2017-08-28T19:35:17.040Z,49.10
2017-08-28T19:37:45.021Z,49.10
2017-08-28T19:40:12.982Z,49.20
2017-08-28T19:42:41.333Z,49.30
2017-08-28T19:45:09.099Z,49.30
2017-08-28T19:47:36.562Z,49.30
2017-08-28T19:50:04.673Z,49.10
2017-08-28T19:52:32.312Z,49.10
2017-08-28T19:54:59.774Z,48.90
2017-08-28T19:57:27.669Z,49.10
2017-08-28T19:59:55.573Z,49.50
2017-08-28T20:05:21.894Z,49.60
2017-08-28T20:07:49.831Z,49.80
2017-08-28T20:10:17.292Z,50.50
2017-08-28T20:12:45.035Z,50.70
2017-08-28T20:15:12.545Z,50.30
2017-08-28T20:17:40.938Z,50.60
2017-08-28T20:20:08.415Z,50.60
2017-08-28T20:22:37.036Z,50.70
2017-08-28T20:25:04.594Z,51.10
2017-08-28T20:27:32.293Z,50.90
2017-08-28T20:30:00.187Z,50.80
2017-08-28T20:32:27.734Z,50.90
2017-08-28T20:34:55.213Z,51.20
2017-08-28T20:37:22.688Z,51.20
2017-08-28T20:39:50.663Z,51.40
2017-08-28T20:42:18.712Z,51.60
2017-08-28T20:44:46.390Z,51.80
2017-08-28T20:47:13.914Z,51.60
2017-08-28T20:49:42.226Z,51.70
2017-08-28T20:52:09.664Z,51.90
2017-08-28T20:54:37.139Z,51.90
2017-08-28T20:57:05.021Z,51.70
2017-08-28T20:59:33.253Z,51.70
2017-08-28T21:02:00.763Z,51.80
2017-08-28T21:04:28.855Z,51.70
2017-08-28T21:06:57.859Z,52.10
2017-08-28T21:09:25.309Z,52.10
2017-08-28T21:11:53.341Z,51.90
2017-08-28T21:14:20.990Z,51.90
2017-08-28T21:16:49.053Z,52.00
2017-08-28T21:19:16.922Z,51.80
2017-08-28T21:21:44.973Z,52.10
2017-08-28T21:24:12.900Z,52.30
2017-08-28T21:26:40.372Z,52.50
2017-08-28T21:29:08.858Z,52.50
2017-08-28T21:31:36.333Z,52.40
2017-08-28T21:34:03.842Z,52.20
2017-08-28T21:36:31.620Z,52.20
2017-08-28T21:38:59.687Z,52.20
2017-08-28T21:41:27.167Z,52.10
2017-08-28T21:43:55.590Z,52.00
2017-08-28T21:46:23.103Z,52.30
2017-08-28T21:48:50.561Z,52.50
2017-08-28T21:51:18.096Z,52.90
2017-08-28T21:53:45.958Z,53.20
2017-08-28T21:56:14.161Z,53.00
2017-08-28T21:58:42.006Z,53.00
2017-08-28T22:01:09.453Z,53.00
2017-08-28T22:03:37.764Z,53.20
2017-08-28T22:06:05.573Z,53.30
2017-08-28T22:08:33.601Z,53.40
2017-08-28T22:11:01.071Z,53.50
2017-08-28T22:13:28.640Z,53.40
2017-08-28T22:15:56.247Z,53.20
2017-08-28T22:18:24.292Z,53.40
2017-08-28T22:20:52.880Z,53.20
2017-08-28T22:23:20.664Z,53.20
2017-08-28T22:25:48.593Z,53.50
2017-08-28T22:28:16.101Z,53.50
2017-08-28T22:30:43.790Z,53.50
2017-08-28T22:33:11.934Z,53.60
2017-08-28T22:35:39.449Z,54.00
2017-08-28T22:38:07.852Z,54.30
2017-08-28T22:40:36.084Z,54.30
2017-08-28T22:43:03.955Z,54.30
2017-08-28T22:45:33.011Z,54.20
2017-08-28T22:48:01.316Z,54.00
2017-08-28T22:50:28.924Z,54.00
2017-08-28T22:52:56.604Z,53.90
2017-08-28T22:55:24.458Z,53.90
2017-08-28T22:57:52.235Z,54.00
2017-08-28T23:00:19.722Z,54.10
2017-08-28T23:02:47.230Z,54.10
2017-08-28T23:05:15.284Z,54.20
2017-08-28T23:07:43.963Z,54.40
2017-08-28T23:10:11.435Z,54.50
2017-08-28T23:12:39.373Z,54.60
2017-08-28T23:15:07.341Z,54.70
2017-08-28T23:17:35.297Z,55.00
2017-08-28T23:20:02.806Z,55.00
2017-08-28T23:22:32.422Z,55.20
2017-08-28T23:24:59.926Z,55.20
2017-08-28T23:27:27.706Z,55.40
2017-08-28T23:29:55.666Z,55.60
2017-08-28T23:32:23.184Z,55.70
2017-08-28T23:34:50.864Z,55.90
2017-08-28T23:37:18.668Z,55.80
2017-08-28T23:39:47.157Z,55.80
2017-08-28T23:42:15.220Z,55.80
2017-08-28T23:44:42.732Z,55.80
2017-08-28T23:47:10.857Z,56.00
2017-08-28T23:49:38.377Z,56.10
2017-08-28T23:52:05.876Z,56.20
2017-08-28T23:54:33.405Z,56.40
2017-08-28T23:57:01.178Z,56.50
2017-08-28T23:59:28.703Z,57.30
